Terminal Aerodrome Forecast
Issued by NWS

Home | Current Version | Previous Version | Text Only | Print | Product List | Glossary On
Versions: 1 2 3 4 5 6 7 8 9 10 11 12 13 14 15 16 17 18 19
000
FTUS43 KAPX 221652 AAC
TAFTVC
TAF AMD
KTVC 221652Z 2217/2312 19009G16KT P6SM SCT012 BKN220
     FM221800 20007G15KT P6SM SCT120 BKN150
     FM222200 20007KT P6SM BKN100
     FM230300 20007KT P6SM VCSH OVC050
     FM230600 25005KT P6SM BKN025
     FM231000 29006KT P6SM BKN018=

USA.gov is the U.S. government's official web portal to all federal, state and local government web resources and services.